sensor_id;sensor_type;location;lat;lon;timestamp;P1;durP1;ratioP1;P2;durP2;ratioP2
13975;SDS011;7062;49.792;9.946;2023-11-22T00:00:09;4.50;;;2.50;;
13975;SDS011;7062;49.792;9.946;2023-11-22T00:02:35;4.05;;;2.90;;
13975;SDS011;7062;49.792;9.946;2023-11-22T00:05:02;3.38;;;2.13;;
13975;SDS011;7062;49.792;9.946;2023-11-22T00:07:28;4.17;;;2.73;;
13975;SDS011;7062;49.792;9.946;2023-11-22T00:09:54;4.00;;;2.83;;
13975;SDS011;7062;49.792;9.946;2023-11-22T00:12:20;2.13;;;1.83;;
13975;SDS011;7062;49.792;9.946;2023-11-22T00:14:47;2.50;;;2.00;;
13975;SDS011;7062;49.792;9.946;2023-11-22T00:17:12;2.93;;;2.20;;
13975;SDS011;7062;49.792;9.946;2023-11-22T00:19:38;3.27;;;2.33;;
13975;SDS011;7062;49.792;9.946;2023-11-22T00:22:05;4.10;;;2.42;;
13975;SDS011;7062;49.792;9.946;2023-11-22T00:24:38;2.93;;;2.40;;
13975;SDS011;7062;49.792;9.946;2023-11-22T00:27:10;3.90;;;2.40;;
13975;SDS011;7062;49.792;9.946;2023-11-22T00:29:35;2.80;;;1.80;;
13975;SDS011;7062;49.792;9.946;2023-11-22T00:32:01;3.03;;;2.10;;
13975;SDS011;7062;49.792;9.946;2023-11-22T00:34:27;2.00;;;1.80;;
13975;SDS011;7062;49.792;9.946;2023-11-22T00:36:52;2.60;;;2.00;;
13975;SDS011;7062;49.792;9.946;2023-11-22T00:39:18;2.47;;;2.20;;
13975;SDS011;7062;49.792;9.946;2023-11-22T00:41:44;3.10;;;2.10;;
13975;SDS011;7062;49.792;9.946;2023-11-22T00:44:10;3.43;;;2.67;;
13975;SDS011;7062;49.792;9.946;2023-11-22T00:46:36;3.80;;;2.00;;
13975;SDS011;7062;49.792;9.946;2023-11-22T00:49:05;6.72;;;2.38;;
13975;SDS011;7062;49.792;9.946;2023-11-22T00:51:31;2.27;;;1.97;;
13975;SDS011;7062;49.792;9.946;2023-11-22T00:54:00;2.80;;;1.65;;
13975;SDS011;7062;49.792;9.946;2023-11-22T00:56:26;3.80;;;2.07;;
13975;SDS011;7062;49.792;9.946;2023-11-22T00:58:52;2.40;;;1.70;;
13975;SDS011;7062;49.792;9.946;2023-11-22T01:01:19;1.93;;;1.60;;
13975;SDS011;7062;49.792;9.946;2023-11-22T01:03:45;8.70;;;3.07;;
13975;SDS011;7062;49.792;9.946;2023-11-22T01:06:11;2.93;;;2.03;;
13975;SDS011;7062;49.792;9.946;2023-11-22T01:08:37;2.43;;;1.90;;
13975;SDS011;7062;49.792;9.946;2023-11-22T01:11:03;2.47;;;1.93;;
13975;SDS011;7062;49.792;9.946;2023-11-22T01:13:30;2.00;;;1.77;;
13975;SDS011;7062;49.792;9.946;2023-11-22T01:15:56;3.83;;;1.77;;
13975;SDS011;7062;49.792;9.946;2023-11-22T01:18:22;2.53;;;2.00;;
13975;SDS011;7062;49.792;9.946;2023-11-22T01:20:47;5.27;;;2.07;;
13975;SDS011;7062;49.792;9.946;2023-11-22T01:23:14;2.07;;;1.50;;
13975;SDS011;7062;49.792;9.946;2023-11-22T01:25:39;4.13;;;1.70;;
13975;SDS011;7062;49.792;9.946;2023-11-22T01:28:05;3.13;;;2.10;;
13975;SDS011;7062;49.792;9.946;2023-11-22T01:30:32;3.83;;;2.80;;
13975;SDS011;7062;49.792;9.946;2023-11-22T01:32:58;5.67;;;2.30;;
13975;SDS011;7062;49.792;9.946;2023-11-22T01:35:24;2.10;;;1.90;;
13975;SDS011;7062;49.792;9.946;2023-11-22T01:37:49;3.13;;;2.03;;
13975;SDS011;7062;49.792;9.946;2023-11-22T01:40:15;2.20;;;1.70;;
13975;SDS011;7062;49.792;9.946;2023-11-22T01:42:41;2.77;;;1.83;;
13975;SDS011;7062;49.792;9.946;2023-11-22T01:45:07;3.87;;;2.33;;
13975;SDS011;7062;49.792;9.946;2023-11-22T01:47:35;2.70;;;1.73;;
13975;SDS011;7062;49.792;9.946;2023-11-22T01:50:08;1.70;;;1.60;;
13975;SDS011;7062;49.792;9.946;2023-11-22T01:52:34;3.00;;;1.73;;
13975;SDS011;7062;49.792;9.946;2023-11-22T01:55:01;2.20;;;2.00;;
13975;SDS011;7062;49.792;9.946;2023-11-22T01:57:30;2.50;;;1.87;;
13975;SDS011;7062;49.792;9.946;2023-11-22T01:59:59;2.33;;;1.87;;
13975;SDS011;7062;49.792;9.946;2023-11-22T02:02:29;2.43;;;2.00;;
13975;SDS011;7062;49.792;9.946;2023-11-22T02:04:56;2.60;;;2.27;;
13975;SDS011;7062;49.792;9.946;2023-11-22T02:07:22;3.77;;;2.23;;
13975;SDS011;7062;49.792;9.946;2023-11-22T02:09:48;2.53;;;1.80;;
13975;SDS011;7062;49.792;9.946;2023-11-22T02:12:14;2.40;;;1.85;;
13975;SDS011;7062;49.792;9.946;2023-11-22T02:14:40;2.60;;;1.70;;
13975;SDS011;7062;49.792;9.946;2023-11-22T02:17:05;3.83;;;1.63;;
13975;SDS011;7062;49.792;9.946;2023-11-22T02:19:31;2.17;;;1.97;;
13975;SDS011;7062;49.792;9.946;2023-11-22T02:21:57;3.30;;;2.10;;
13975;SDS011;7062;49.792;9.946;2023-11-22T02:24:24;3.42;;;2.15;;
13975;SDS011;7062;49.792;9.946;2023-11-22T02:26:49;3.63;;;1.67;;
13975;SDS011;7062;49.792;9.946;2023-11-22T02:29:16;4.30;;;2.85;;
13975;SDS011;7062;49.792;9.946;2023-11-22T02:31:43;2.90;;;1.90;;
13975;SDS011;7062;49.792;9.946;2023-11-22T02:34:09;2.78;;;1.95;;
13975;SDS011;7062;49.792;9.946;2023-11-22T02:36:34;2.30;;;1.50;;
13975;SDS011;7062;49.792;9.946;2023-11-22T02:39:00;6.13;;;1.80;;
13975;SDS011;7062;49.792;9.946;2023-11-22T02:41:26;2.60;;;1.63;;
13975;SDS011;7062;49.792;9.946;2023-11-22T02:43:54;2.90;;;2.00;;
13975;SDS011;7062;49.792;9.946;2023-11-22T02:46:20;3.40;;;2.22;;
13975;SDS011;7062;49.792;9.946;2023-11-22T02:48:46;2.60;;;1.77;;
13975;SDS011;7062;49.792;9.946;2023-11-22T02:51:12;5.07;;;2.13;;
13975;SDS011;7062;49.792;9.946;2023-11-22T02:53:39;2.97;;;1.52;;
13975;SDS011;7062;49.792;9.946;2023-11-22T02:56:08;2.70;;;1.70;;
13975;SDS011;7062;49.792;9.946;2023-11-22T02:58:34;2.67;;;1.85;;
13975;SDS011;7062;49.792;9.946;2023-11-22T03:01:00;2.42;;;1.58;;
13975;SDS011;7062;49.792;9.946;2023-11-22T03:03:26;2.23;;;1.87;;
13975;SDS011;7062;49.792;9.946;2023-11-22T03:05:53;3.42;;;1.77;;
13975;SDS011;7062;49.792;9.946;2023-11-22T03:08:19;2.58;;;2.05;;
13975;SDS011;7062;49.792;9.946;2023-11-22T03:10:45;4.33;;;2.40;;
13975;SDS011;7062;49.792;9.946;2023-11-22T03:13:11;2.50;;;1.67;;
13975;SDS011;7062;49.792;9.946;2023-11-22T03:15:37;2.78;;;1.88;;
13975;SDS011;7062;49.792;9.946;2023-11-22T03:18:03;3.10;;;1.87;;
13975;SDS011;7062;49.792;9.946;2023-11-22T03:20:31;3.40;;;1.80;;
13975;SDS011;7062;49.792;9.946;2023-11-22T03:22:57;3.05;;;1.70;;
13975;SDS011;7062;49.792;9.946;2023-11-22T03:25:23;2.47;;;1.70;;
13975;SDS011;7062;49.792;9.946;2023-11-22T03:27:49;2.13;;;1.53;;
13975;SDS011;7062;49.792;9.946;2023-11-22T03:30:15;3.17;;;2.00;;
13975;SDS011;7062;49.792;9.946;2023-11-22T03:32:41;3.00;;;1.90;;
13975;SDS011;7062;49.792;9.946;2023-11-22T03:35:07;2.10;;;1.60;;
13975;SDS011;7062;49.792;9.946;2023-11-22T03:37:33;2.58;;;2.03;;
13975;SDS011;7062;49.792;9.946;2023-11-22T03:39:59;3.67;;;1.50;;
13975;SDS011;7062;49.792;9.946;2023-11-22T03:42:25;3.27;;;2.00;;
13975;SDS011;7062;49.792;9.946;2023-11-22T03:44:52;2.53;;;1.88;;
13975;SDS011;7062;49.792;9.946;2023-11-22T03:47:21;3.30;;;1.75;;
13975;SDS011;7062;49.792;9.946;2023-11-22T03:49:47;2.73;;;2.00;;
13975;SDS011;7062;49.792;9.946;2023-11-22T03:52:13;4.43;;;2.60;;
13975;SDS011;7062;49.792;9.946;2023-11-22T03:54:41;2.80;;;1.85;;
13975;SDS011;7062;49.792;9.946;2023-11-22T03:57:07;4.30;;;2.30;;
13975;SDS011;7062;49.792;9.946;2023-11-22T03:59:34;3.23;;;1.87;;
13975;SDS011;7062;49.792;9.946;2023-11-22T04:01:59;2.55;;;2.33;;
13975;SDS011;7062;49.792;9.946;2023-11-22T04:04:25;4.23;;;2.60;;
13975;SDS011;7062;49.792;9.946;2023-11-22T04:06:51;3.57;;;2.30;;
13975;SDS011;7062;49.792;9.946;2023-11-22T04:09:17;3.70;;;2.47;;
13975;SDS011;7062;49.792;9.946;2023-11-22T04:11:45;2.83;;;2.05;;
13975;SDS011;7062;49.792;9.946;2023-11-22T04:14:11;4.18;;;2.30;;
13975;SDS011;7062;49.792;9.946;2023-11-22T04:16:37;3.87;;;2.60;;
13975;SDS011;7062;49.792;9.946;2023-11-22T04:19:03;3.70;;;2.30;;
13975;SDS011;7062;49.792;9.946;2023-11-22T04:21:28;4.27;;;2.40;;
13975;SDS011;7062;49.792;9.946;2023-11-22T04:23:54;3.73;;;2.37;;
13975;SDS011;7062;49.792;9.946;2023-11-22T04:26:20;3.67;;;2.37;;
13975;SDS011;7062;49.792;9.946;2023-11-22T04:28:45;3.43;;;2.40;;
13975;SDS011;7062;49.792;9.946;2023-11-22T04:31:11;5.00;;;2.80;;
13975;SDS011;7062;49.792;9.946;2023-11-22T04:33:37;3.50;;;2.40;;
13975;SDS011;7062;49.792;9.946;2023-11-22T04:36:03;3.70;;;2.63;;
13975;SDS011;7062;49.792;9.946;2023-11-22T04:38:29;4.85;;;3.00;;
13975;SDS011;7062;49.792;9.946;2023-11-22T04:40:55;5.10;;;2.87;;
13975;SDS011;7062;49.792;9.946;2023-11-22T04:43:21;4.27;;;2.87;;
13975;SDS011;7062;49.792;9.946;2023-11-22T04:45:46;6.30;;;2.63;;
13975;SDS011;7062;49.792;9.946;2023-11-22T04:48:12;3.60;;;2.77;;
13975;SDS011;7062;49.792;9.946;2023-11-22T04:50:40;3.85;;;3.00;;
13975;SDS011;7062;49.792;9.946;2023-11-22T04:53:07;4.47;;;3.47;;
13975;SDS011;7062;49.792;9.946;2023-11-22T04:55:33;5.00;;;2.83;;
13975;SDS011;7062;49.792;9.946;2023-11-22T04:57:59;4.40;;;3.20;;
13975;SDS011;7062;49.792;9.946;2023-11-22T05:00:24;5.37;;;2.53;;
13975;SDS011;7062;49.792;9.946;2023-11-22T05:02:50;3.10;;;2.37;;
13975;SDS011;7062;49.792;9.946;2023-11-22T05:05:16;3.57;;;2.80;;
13975;SDS011;7062;49.792;9.946;2023-11-22T05:07:41;3.57;;;2.70;;
13975;SDS011;7062;49.792;9.946;2023-11-22T05:10:09;7.68;;;3.00;;
13975;SDS011;7062;49.792;9.946;2023-11-22T05:12:35;3.67;;;2.50;;
13975;SDS011;7062;49.792;9.946;2023-11-22T05:15:01;3.50;;;2.47;;
13975;SDS011;7062;49.792;9.946;2023-11-22T05:17:27;3.47;;;2.35;;
13975;SDS011;7062;49.792;9.946;2023-11-22T05:19:53;3.37;;;2.87;;
13975;SDS011;7062;49.792;9.946;2023-11-22T05:22:19;3.60;;;2.93;;
13975;SDS011;7062;49.792;9.946;2023-11-22T05:24:44;4.27;;;3.30;;
13975;SDS011;7062;49.792;9.946;2023-11-22T05:27:10;4.10;;;2.63;;
13975;SDS011;7062;49.792;9.946;2023-11-22T05:29:36;3.40;;;2.40;;
13975;SDS011;7062;49.792;9.946;2023-11-22T05:32:02;4.45;;;3.78;;
13975;SDS011;7062;49.792;9.946;2023-11-22T05:34:31;4.07;;;2.80;;
13975;SDS011;7062;49.792;9.946;2023-11-22T05:36:57;4.28;;;3.17;;
13975;SDS011;7062;49.792;9.946;2023-11-22T05:39:22;4.77;;;3.20;;
13975;SDS011;7062;49.792;9.946;2023-11-22T05:41:49;3.90;;;2.88;;
13975;SDS011;7062;49.792;9.946;2023-11-22T05:44:18;4.88;;;3.03;;
13975;SDS011;7062;49.792;9.946;2023-11-22T05:46:44;4.30;;;3.70;;
13975;SDS011;7062;49.792;9.946;2023-11-22T05:49:10;4.33;;;3.20;;
13975;SDS011;7062;49.792;9.946;2023-11-22T05:51:36;3.90;;;3.33;;
13975;SDS011;7062;49.792;9.946;2023-11-22T05:54:02;3.53;;;3.05;;
13975;SDS011;7062;49.792;9.946;2023-11-22T05:56:28;4.65;;;3.67;;
13975;SDS011;7062;49.792;9.946;2023-11-22T05:58:54;4.87;;;3.57;;
13975;SDS011;7062;49.792;9.946;2023-11-22T06:01:20;5.23;;;3.57;;
13975;SDS011;7062;49.792;9.946;2023-11-22T06:03:46;6.43;;;3.43;;
13975;SDS011;7062;49.792;9.946;2023-11-22T06:06:13;4.28;;;3.15;;
13975;SDS011;7062;49.792;9.946;2023-11-22T06:08:39;3.73;;;2.87;;
13975;SDS011;7062;49.792;9.946;2023-11-22T06:11:04;6.27;;;4.17;;
13975;SDS011;7062;49.792;9.946;2023-11-22T06:13:31;6.18;;;3.25;;
13975;SDS011;7062;49.792;9.946;2023-11-22T06:15:56;5.17;;;3.03;;
13975;SDS011;7062;49.792;9.946;2023-11-22T06:18:22;5.23;;;2.97;;
13975;SDS011;7062;49.792;9.946;2023-11-22T06:20:54;5.18;;;3.60;;
13975;SDS011;7062;49.792;9.946;2023-11-22T06:23:20;4.27;;;3.27;;
13975;SDS011;7062;49.792;9.946;2023-11-22T06:25:45;6.50;;;4.40;;
13975;SDS011;7062;49.792;9.946;2023-11-22T06:28:11;7.93;;;5.27;;
13975;SDS011;7062;49.792;9.946;2023-11-22T06:30:37;6.78;;;4.63;;
13975;SDS011;7062;49.792;9.946;2023-11-22T06:33:03;7.33;;;3.43;;
13975;SDS011;7062;49.792;9.946;2023-11-22T06:35:28;8.20;;;3.77;;
13975;SDS011;7062;49.792;9.946;2023-11-22T06:37:54;9.03;;;3.77;;
13975;SDS011;7062;49.792;9.946;2023-11-22T06:40:20;5.77;;;3.27;;
13975;SDS011;7062;49.792;9.946;2023-11-22T06:42:48;8.85;;;3.65;;
13975;SDS011;7062;49.792;9.946;2023-11-22T06:45:14;10.30;;;4.03;;
13975;SDS011;7062;49.792;9.946;2023-11-22T06:47:40;4.93;;;3.05;;
13975;SDS011;7062;49.792;9.946;2023-11-22T06:50:06;3.95;;;3.00;;
13975;SDS011;7062;49.792;9.946;2023-11-22T06:52:39;5.25;;;3.92;;
13975;SDS011;7062;49.792;9.946;2023-11-22T06:55:05;5.50;;;3.17;;
13975;SDS011;7062;49.792;9.946;2023-11-22T06:57:33;4.88;;;3.20;;
13975;SDS011;7062;49.792;9.946;2023-11-22T07:00:02;7.22;;;3.60;;
13975;SDS011;7062;49.792;9.946;2023-11-22T07:02:32;4.10;;;2.88;;
13975;SDS011;7062;49.792;9.946;2023-11-22T07:04:59;5.13;;;3.88;;
13975;SDS011;7062;49.792;9.946;2023-11-22T07:07:25;5.90;;;3.80;;
13975;SDS011;7062;49.792;9.946;2023-11-22T07:09:50;5.03;;;3.77;;
13975;SDS011;7062;49.792;9.946;2023-11-22T07:12:16;6.83;;;4.13;;
13975;SDS011;7062;49.792;9.946;2023-11-22T07:14:44;7.60;;;4.10;;
13975;SDS011;7062;49.792;9.946;2023-11-22T07:17:10;5.00;;;3.65;;
13975;SDS011;7062;49.792;9.946;2023-11-22T07:19:35;7.63;;;4.27;;
13975;SDS011;7062;49.792;9.946;2023-11-22T07:22:05;5.45;;;4.15;;
13975;SDS011;7062;49.792;9.946;2023-11-22T07:24:43;6.53;;;3.97;;
13975;SDS011;7062;49.792;9.946;2023-11-22T07:27:13;7.22;;;4.30;;
13975;SDS011;7062;49.792;9.946;2023-11-22T07:29:40;4.85;;;3.55;;
13975;SDS011;7062;49.792;9.946;2023-11-22T07:32:06;4.13;;;2.88;;
13975;SDS011;7062;49.792;9.946;2023-11-22T07:34:34;10.02;;;5.05;;
13975;SDS011;7062;49.792;9.946;2023-11-22T07:37:00;6.10;;;4.00;;
13975;SDS011;7062;49.792;9.946;2023-11-22T07:39:26;6.33;;;4.30;;
13975;SDS011;7062;49.792;9.946;2023-11-22T07:41:52;6.90;;;3.95;;
13975;SDS011;7062;49.792;9.946;2023-11-22T07:44:19;6.22;;;4.30;;
13975;SDS011;7062;49.792;9.946;2023-11-22T07:46:46;6.53;;;4.22;;
13975;SDS011;7062;49.792;9.946;2023-11-22T07:49:12;4.57;;;3.80;;
13975;SDS011;7062;49.792;9.946;2023-11-22T07:51:39;13.07;;;8.07;;
13975;SDS011;7062;49.792;9.946;2023-11-22T07:54:05;8.38;;;3.47;;
13975;SDS011;7062;49.792;9.946;2023-11-22T07:56:31;6.00;;;3.77;;
13975;SDS011;7062;49.792;9.946;2023-11-22T07:58:57;6.05;;;4.55;;
13975;SDS011;7062;49.792;9.946;2023-11-22T08:01:23;4.93;;;3.97;;
13975;SDS011;7062;49.792;9.946;2023-11-22T08:03:50;8.20;;;4.30;;
13975;SDS011;7062;49.792;9.946;2023-11-22T08:06:17;5.75;;;4.05;;
13975;SDS011;7062;49.792;9.946;2023-11-22T08:08:43;6.43;;;4.43;;
13975;SDS011;7062;49.792;9.946;2023-11-22T08:11:10;5.85;;;4.30;;
13975;SDS011;7062;49.792;9.946;2023-11-22T08:13:40;5.10;;;3.80;;
13975;SDS011;7062;49.792;9.946;2023-11-22T08:16:07;6.22;;;3.75;;
13975;SDS011;7062;49.792;9.946;2023-11-22T08:18:33;6.90;;;5.07;;
13975;SDS011;7062;49.792;9.946;2023-11-22T08:21:00;4.88;;;3.90;;
13975;SDS011;7062;49.792;9.946;2023-11-22T08:23:25;6.67;;;4.63;;
13975;SDS011;7062;49.792;9.946;2023-11-22T08:25:55;5.25;;;3.90;;
13975;SDS011;7062;49.792;9.946;2023-11-22T08:28:22;6.25;;;4.45;;
13975;SDS011;7062;49.792;9.946;2023-11-22T08:30:47;5.90;;;4.60;;
13975;SDS011;7062;49.792;9.946;2023-11-22T08:33:13;5.90;;;4.57;;
13975;SDS011;7062;49.792;9.946;2023-11-22T08:35:39;5.20;;;4.07;;
13975;SDS011;7062;49.792;9.946;2023-11-22T08:38:06;5.85;;;4.18;;
13975;SDS011;7062;49.792;9.946;2023-11-22T08:40:34;5.28;;;3.80;;
13975;SDS011;7062;49.792;9.946;2023-11-22T08:43:02;9.85;;;4.25;;
13975;SDS011;7062;49.792;9.946;2023-11-22T08:45:29;5.53;;;4.05;;
13975;SDS011;7062;49.792;9.946;2023-11-22T08:47:56;9.25;;;3.92;;
13975;SDS011;7062;49.792;9.946;2023-11-22T08:50:22;6.55;;;4.28;;
13975;SDS011;7062;49.792;9.946;2023-11-22T08:52:48;11.43;;;4.30;;
13975;SDS011;7062;49.792;9.946;2023-11-22T08:55:17;5.55;;;3.97;;
13975;SDS011;7062;49.792;9.946;2023-11-22T08:57:47;5.90;;;3.70;;
13975;SDS011;7062;49.792;9.946;2023-11-22T09:00:13;5.03;;;3.70;;
13975;SDS011;7062;49.792;9.946;2023-11-22T09:02:39;9.52;;;4.43;;
13975;SDS011;7062;49.792;9.946;2023-11-22T09:05:05;5.30;;;3.80;;
13975;SDS011;7062;49.792;9.946;2023-11-22T09:07:37;5.47;;;4.13;;
13975;SDS011;7062;49.792;9.946;2023-11-22T09:10:03;6.03;;;4.25;;
13975;SDS011;7062;49.792;9.946;2023-11-22T09:12:35;11.02;;;4.53;;
13975;SDS011;7062;49.792;9.946;2023-11-22T09:15:02;5.90;;;4.18;;
13975;SDS011;7062;49.792;9.946;2023-11-22T09:17:29;5.68;;;4.18;;
13975;SDS011;7062;49.792;9.946;2023-11-22T09:19:56;6.53;;;4.35;;
13975;SDS011;7062;49.792;9.946;2023-11-22T09:22:23;5.10;;;3.80;;
13975;SDS011;7062;49.792;9.946;2023-11-22T09:24:51;5.68;;;4.45;;
13975;SDS011;7062;49.792;9.946;2023-11-22T09:27:16;8.80;;;5.20;;
13975;SDS011;7062;49.792;9.946;2023-11-22T09:29:43;7.10;;;4.45;;
13975;SDS011;7062;49.792;9.946;2023-11-22T09:32:10;6.35;;;4.53;;
13975;SDS011;7062;49.792;9.946;2023-11-22T09:34:35;5.27;;;4.03;;
13975;SDS011;7062;49.792;9.946;2023-11-22T09:37:01;7.00;;;4.73;;
13975;SDS011;7062;49.792;9.946;2023-11-22T09:39:27;7.00;;;4.93;;
13975;SDS011;7062;49.792;9.946;2023-11-22T09:41:52;4.63;;;3.97;;
13975;SDS011;7062;49.792;9.946;2023-11-22T09:44:19;6.65;;;4.18;;
13975;SDS011;7062;49.792;9.946;2023-11-22T09:46:46;6.63;;;4.90;;
13975;SDS011;7062;49.792;9.946;2023-11-22T09:49:14;6.75;;;5.18;;
13975;SDS011;7062;49.792;9.946;2023-11-22T09:51:47;5.22;;;3.97;;
13975;SDS011;7062;49.792;9.946;2023-11-22T09:54:13;5.82;;;4.28;;
13975;SDS011;7062;49.792;9.946;2023-11-22T09:56:41;6.95;;;4.57;;
13975;SDS011;7062;49.792;9.946;2023-11-22T09:59:15;6.50;;;4.85;;
13975;SDS011;7062;49.792;9.946;2023-11-22T10:01:43;5.75;;;4.63;;
13975;SDS011;7062;49.792;9.946;2023-11-22T10:04:09;6.20;;;4.37;;
13975;SDS011;7062;49.792;9.946;2023-11-22T10:06:34;6.03;;;4.40;;
13975;SDS011;7062;49.792;9.946;2023-11-22T10:09:03;5.63;;;4.77;;
13975;SDS011;7062;49.792;9.946;2023-11-22T10:11:32;5.13;;;4.20;;
13975;SDS011;7062;49.792;9.946;2023-11-22T10:14:04;4.47;;;4.03;;
13975;SDS011;7062;49.792;9.946;2023-11-22T10:16:29;6.07;;;4.70;;
13975;SDS011;7062;49.792;9.946;2023-11-22T10:18:55;6.53;;;4.00;;
13975;SDS011;7062;49.792;9.946;2023-11-22T10:21:23;7.90;;;4.57;;
13975;SDS011;7062;49.792;9.946;2023-11-22T10:23:52;5.77;;;5.27;;
13975;SDS011;7062;49.792;9.946;2023-11-22T10:26:22;6.13;;;4.07;;
13975;SDS011;7062;49.792;9.946;2023-11-22T10:28:52;4.93;;;4.13;;
13975;SDS011;7062;49.792;9.946;2023-11-22T10:31:19;5.20;;;4.17;;
13975;SDS011;7062;49.792;9.946;2023-11-22T10:33:46;4.63;;;3.90;;
13975;SDS011;7062;49.792;9.946;2023-11-22T10:36:13;5.40;;;4.37;;
13975;SDS011;7062;49.792;9.946;2023-11-22T10:38:40;6.10;;;3.87;;
13975;SDS011;7062;49.792;9.946;2023-11-22T10:41:07;7.03;;;4.50;;
13975;SDS011;7062;49.792;9.946;2023-11-22T10:43:37;4.67;;;3.70;;
13975;SDS011;7062;49.792;9.946;2023-11-22T10:46:03;5.60;;;4.70;;
13975;SDS011;7062;49.792;9.946;2023-11-22T10:48:30;5.20;;;4.53;;
13975;SDS011;7062;49.792;9.946;2023-11-22T10:50:59;5.40;;;4.33;;
13975;SDS011;7062;49.792;9.946;2023-11-22T10:53:35;5.17;;;3.97;;
13975;SDS011;7062;49.792;9.946;2023-11-22T10:56:07;5.13;;;4.00;;
13975;SDS011;7062;49.792;9.946;2023-11-22T10:58:48;3.87;;;3.43;;
13975;SDS011;7062;49.792;9.946;2023-11-22T11:01:22;6.67;;;4.37;;
13975;SDS011;7062;49.792;9.946;2023-11-22T11:04:24;6.77;;;3.87;;
13975;SDS011;7062;49.792;9.946;2023-11-22T11:06:51;6.33;;;4.40;;
13975;SDS011;7062;49.792;9.946;2023-11-22T11:09:20;4.80;;;3.30;;
13975;SDS011;7062;49.792;9.946;2023-11-22T11:11:51;4.63;;;3.83;;
13975;SDS011;7062;49.792;9.946;2023-11-22T11:14:16;4.20;;;3.73;;
13975;SDS011;7062;49.792;9.946;2023-11-22T11:16:42;5.93;;;4.40;;
13975;SDS011;7062;49.792;9.946;2023-11-22T11:19:19;8.80;;;4.30;;
13975;SDS011;7062;49.792;9.946;2023-11-22T11:21:47;4.30;;;3.90;;
13975;SDS011;7062;49.792;9.946;2023-11-22T11:24:13;7.03;;;4.17;;
13975;SDS011;7062;49.792;9.946;2023-11-22T11:26:39;5.37;;;4.27;;
13975;SDS011;7062;49.792;9.946;2023-11-22T11:29:05;5.73;;;4.57;;
13975;SDS011;7062;49.792;9.946;2023-11-22T11:31:33;4.57;;;3.90;;
13975;SDS011;7062;49.792;9.946;2023-11-22T11:34:07;6.35;;;4.55;;
13975;SDS011;7062;49.792;9.946;2023-11-22T11:36:33;4.25;;;3.58;;
13975;SDS011;7062;49.792;9.946;2023-11-22T11:39:04;7.28;;;6.20;;
13975;SDS011;7062;49.792;9.946;2023-11-22T11:41:34;3.53;;;3.22;;
13975;SDS011;7062;49.792;9.946;2023-11-22T11:44:03;5.23;;;4.47;;
13975;SDS011;7062;49.792;9.946;2023-11-22T11:46:32;6.57;;;3.90;;
13975;SDS011;7062;49.792;9.946;2023-11-22T11:48:58;5.90;;;4.07;;
13975;SDS011;7062;49.792;9.946;2023-11-22T11:51:25;4.30;;;3.70;;
13975;SDS011;7062;49.792;9.946;2023-11-22T11:53:52;5.17;;;4.00;;
13975;SDS011;7062;49.792;9.946;2023-11-22T11:56:20;4.60;;;3.87;;
13975;SDS011;7062;49.792;9.946;2023-11-22T11:58:47;4.73;;;3.50;;
13975;SDS011;7062;49.792;9.946;2023-11-22T12:01:17;4.80;;;4.27;;
13975;SDS011;7062;49.792;9.946;2023-11-22T12:03:47;5.67;;;4.53;;
13975;SDS011;7062;49.792;9.946;2023-11-22T12:06:16;7.00;;;4.10;;
13975;SDS011;7062;49.792;9.946;2023-11-22T12:08:43;4.77;;;3.47;;
13975;SDS011;7062;49.792;9.946;2023-11-22T12:11:09;3.93;;;3.23;;
13975;SDS011;7062;49.792;9.946;2023-11-22T12:13:36;3.53;;;2.93;;
13975;SDS011;7062;49.792;9.946;2023-11-22T12:16:04;5.60;;;4.23;;
13975;SDS011;7062;49.792;9.946;2023-11-22T12:18:40;8.70;;;4.03;;
13975;SDS011;7062;49.792;9.946;2023-11-22T12:21:08;9.47;;;3.80;;
13975;SDS011;7062;49.792;9.946;2023-11-22T12:23:38;14.70;;;5.50;;
13975;SDS011;7062;49.792;9.946;2023-11-22T12:26:04;8.73;;;4.37;;
13975;SDS011;7062;49.792;9.946;2023-11-22T12:28:34;4.93;;;4.05;;
13975;SDS011;7062;49.792;9.946;2023-11-22T12:31:07;3.77;;;3.37;;
13975;SDS011;7062;49.792;9.946;2023-11-22T12:33:36;13.40;;;4.63;;
13975;SDS011;7062;49.792;9.946;2023-11-22T12:36:03;10.75;;;4.63;;
13975;SDS011;7062;49.792;9.946;2023-11-22T12:38:29;8.70;;;4.35;;
13975;SDS011;7062;49.792;9.946;2023-11-22T12:40:58;7.83;;;4.90;;
13975;SDS011;7062;49.792;9.946;2023-11-22T12:43:24;4.75;;;4.25;;
13975;SDS011;7062;49.792;9.946;2023-11-22T12:46:03;4.85;;;4.13;;
13975;SDS011;7062;49.792;9.946;2023-11-22T12:48:31;7.07;;;4.25;;
13975;SDS011;7062;49.792;9.946;2023-11-22T12:50:58;5.50;;;4.07;;
13975;SDS011;7062;49.792;9.946;2023-11-22T12:53:24;4.47;;;3.45;;
13975;SDS011;7062;49.792;9.946;2023-11-22T12:55:52;3.85;;;3.45;;
13975;SDS011;7062;49.792;9.946;2023-11-22T12:58:20;4.75;;;4.20;;
13975;SDS011;7062;49.792;9.946;2023-11-22T13:00:51;4.78;;;3.92;;
13975;SDS011;7062;49.792;9.946;2023-11-22T13:03:22;4.95;;;3.83;;
13975;SDS011;7062;49.792;9.946;2023-11-22T13:05:52;6.57;;;4.32;;
13975;SDS011;7062;49.792;9.946;2023-11-22T13:08:18;5.82;;;4.18;;
13975;SDS011;7062;49.792;9.946;2023-11-22T13:13:19;5.63;;;4.13;;
13975;SDS011;7062;49.792;9.946;2023-11-22T13:15:45;5.43;;;4.07;;
13975;SDS011;7062;49.792;9.946;2023-11-22T13:18:11;6.57;;;4.70;;
13975;SDS011;7062;49.792;9.946;2023-11-22T13:20:37;5.50;;;4.70;;
13975;SDS011;7062;49.792;9.946;2023-11-22T13:23:05;7.55;;;4.93;;
13975;SDS011;7062;49.792;9.946;2023-11-22T13:25:32;6.00;;;4.57;;
13975;SDS011;7062;49.792;9.946;2023-11-22T13:27:58;5.33;;;4.17;;
13975;SDS011;7062;49.792;9.946;2023-11-22T13:30:24;6.20;;;4.53;;
13975;SDS011;7062;49.792;9.946;2023-11-22T13:32:53;7.32;;;4.65;;
13975;SDS011;7062;49.792;9.946;2023-11-22T13:35:26;5.55;;;3.80;;
13975;SDS011;7062;49.792;9.946;2023-11-22T13:37:56;5.40;;;4.45;;
13975;SDS011;7062;49.792;9.946;2023-11-22T13:40:23;4.38;;;3.58;;
13975;SDS011;7062;49.792;9.946;2023-11-22T13:42:52;5.47;;;4.38;;
13975;SDS011;7062;49.792;9.946;2023-11-22T13:45:18;7.87;;;5.23;;
13975;SDS011;7062;49.792;9.946;2023-11-22T13:47:48;5.30;;;4.18;;
13975;SDS011;7062;49.792;9.946;2023-11-22T13:50:15;7.07;;;4.57;;
13975;SDS011;7062;49.792;9.946;2023-11-22T13:52:47;5.03;;;4.25;;
13975;SDS011;7062;49.792;9.946;2023-11-22T13:55:13;4.93;;;4.40;;
13975;SDS011;7062;49.792;9.946;2023-11-22T13:57:41;8.93;;;5.30;;
13975;SDS011;7062;49.792;9.946;2023-11-22T14:00:07;5.70;;;3.93;;
13975;SDS011;7062;49.792;9.946;2023-11-22T14:02:35;4.78;;;3.72;;
13975;SDS011;7062;49.792;9.946;2023-11-22T14:05:01;5.68;;;4.63;;
13975;SDS011;7062;49.792;9.946;2023-11-22T14:07:28;5.32;;;3.50;;
13975;SDS011;7062;49.792;9.946;2023-11-22T14:09:54;5.10;;;4.23;;
13975;SDS011;7062;49.792;9.946;2023-11-22T14:12:20;5.50;;;3.67;;
13975;SDS011;7062;49.792;9.946;2023-11-22T14:14:46;6.03;;;4.17;;
13975;SDS011;7062;49.792;9.946;2023-11-22T14:17:11;4.37;;;3.63;;
13975;SDS011;7062;49.792;9.946;2023-11-22T14:19:39;5.43;;;4.18;;
13975;SDS011;7062;49.792;9.946;2023-11-22T14:22:05;5.70;;;4.05;;
13975;SDS011;7062;49.792;9.946;2023-11-22T14:24:33;4.90;;;4.18;;
13975;SDS011;7062;49.792;9.946;2023-11-22T14:27:02;7.22;;;3.45;;
13975;SDS011;7062;49.792;9.946;2023-11-22T14:29:28;4.57;;;3.53;;
13975;SDS011;7062;49.792;9.946;2023-11-22T14:31:53;4.27;;;3.73;;
13975;SDS011;7062;49.792;9.946;2023-11-22T14:34:19;5.53;;;4.67;;
13975;SDS011;7062;49.792;9.946;2023-11-22T14:36:45;6.70;;;4.20;;
13975;SDS011;7062;49.792;9.946;2023-11-22T14:39:11;4.43;;;3.60;;
13975;SDS011;7062;49.792;9.946;2023-11-22T14:41:39;6.35;;;4.05;;
13975;SDS011;7062;49.792;9.946;2023-11-22T14:44:05;3.97;;;3.20;;
13975;SDS011;7062;49.792;9.946;2023-11-22T14:46:31;5.77;;;3.90;;
13975;SDS011;7062;49.792;9.946;2023-11-22T14:48:57;6.97;;;4.30;;
13975;SDS011;7062;49.792;9.946;2023-11-22T14:51:23;5.33;;;4.10;;
13975;SDS011;7062;49.792;9.946;2023-11-22T14:53:49;6.23;;;3.87;;
13975;SDS011;7062;49.792;9.946;2023-11-22T14:56:14;5.80;;;4.93;;
13975;SDS011;7062;49.792;9.946;2023-11-22T14:58:40;6.17;;;4.53;;
13975;SDS011;7062;49.792;9.946;2023-11-22T15:01:06;4.87;;;4.27;;